sensor_id;sensor_type;location;lat;lon;timestamp;P1;durP1;ratioP1;P2;durP2;ratioP2
17197;SDS011;8715;51.010;6.812;2023-02-24T00:01:00;833.28;;;785.45;;
17197;SDS011;8715;51.010;6.812;2023-02-24T00:03:33;829.42;;;781.72;;
17197;SDS011;8715;51.010;6.812;2023-02-24T00:05:58;834.60;;;787.15;;
17197;SDS011;8715;51.010;6.812;2023-02-24T00:08:23;839.57;;;791.20;;
17197;SDS011;8715;51.010;6.812;2023-02-24T00:10:48;833.93;;;786.23;;
17197;SDS011;8715;51.010;6.812;2023-02-24T00:13:14;832.67;;;784.33;;
17197;SDS011;8715;51.010;6.812;2023-02-24T00:15:42;828.03;;;781.28;;
17197;SDS011;8715;51.010;6.812;2023-02-24T00:18:07;832.30;;;784.43;;
17197;SDS011;8715;51.010;6.812;2023-02-24T00:20:33;837.40;;;788.90;;
17197;SDS011;8715;51.010;6.812;2023-02-24T00:22:58;839.13;;;791.13;;
17197;SDS011;8715;51.010;6.812;2023-02-24T00:25:24;825.70;;;779.63;;
17197;SDS011;8715;51.010;6.812;2023-02-24T00:27:49;829.72;;;782.85;;
17197;SDS011;8715;51.010;6.812;2023-02-24T00:30:16;829.78;;;784.38;;
17197;SDS011;8715;51.010;6.812;2023-02-24T00:32:41;827.43;;;781.80;;
17197;SDS011;8715;51.010;6.812;2023-02-24T00:35:07;826.17;;;780.53;;
17197;SDS011;8715;51.010;6.812;2023-02-24T00:37:33;823.10;;;777.25;;
17197;SDS011;8715;51.010;6.812;2023-02-24T00:39:58;824.87;;;779.10;;
17197;SDS011;8715;51.010;6.812;2023-02-24T00:42:23;834.10;;;786.93;;
17197;SDS011;8715;51.010;6.812;2023-02-24T00:44:48;828.03;;;781.27;;
17197;SDS011;8715;51.010;6.812;2023-02-24T00:47:14;831.63;;;783.67;;
17197;SDS011;8715;51.010;6.812;2023-02-24T00:49:42;831.50;;;783.17;;
17197;SDS011;8715;51.010;6.812;2023-02-24T00:52:09;854.58;;;804.85;;
17197;SDS011;8715;51.010;6.812;2023-02-24T00:54:37;832.05;;;784.05;;
17197;SDS011;8715;51.010;6.812;2023-02-24T00:57:02;832.47;;;783.77;;
17197;SDS011;8715;51.010;6.812;2023-02-24T00:59:28;828.30;;;779.03;;
17197;SDS011;8715;51.010;6.812;2023-02-24T01:01:53;833.87;;;785.47;;
17197;SDS011;8715;51.010;6.812;2023-02-24T01:04:18;842.35;;;792.60;;
17197;SDS011;8715;51.010;6.812;2023-02-24T01:06:46;837.72;;;788.70;;
17197;SDS011;8715;51.010;6.812;2023-02-24T01:09:12;829.58;;;780.97;;
17197;SDS011;8715;51.010;6.812;2023-02-24T01:11:38;833.67;;;784.75;;
17197;SDS011;8715;51.010;6.812;2023-02-24T01:14:25;826.97;;;779.50;;
17197;SDS011;8715;51.010;6.812;2023-02-24T01:16:51;822.60;;;776.40;;
17197;SDS011;8715;51.010;6.812;2023-02-24T01:19:17;825.50;;;778.08;;
17197;SDS011;8715;51.010;6.812;2023-02-24T01:21:42;830.70;;;782.40;;
17197;SDS011;8715;51.010;6.812;2023-02-24T01:24:07;829.33;;;781.70;;
17197;SDS011;8715;51.010;6.812;2023-02-24T01:26:34;830.58;;;783.15;;
17197;SDS011;8715;51.010;6.812;2023-02-24T01:28:59;829.30;;;780.83;;
17197;SDS011;8715;51.010;6.812;2023-02-24T01:31:24;830.50;;;781.83;;
17197;SDS011;8715;51.010;6.812;2023-02-24T01:33:52;835.88;;;787.33;;
17197;SDS011;8715;51.010;6.812;2023-02-24T01:36:20;838.45;;;788.88;;
17197;SDS011;8715;51.010;6.812;2023-02-24T01:38:46;837.50;;;787.78;;
17197;SDS011;8715;51.010;6.812;2023-02-24T01:41:14;832.72;;;784.05;;
17197;SDS011;8715;51.010;6.812;2023-02-24T01:46:31;852.20;;;802.40;;
17197;SDS011;8715;51.010;6.812;2023-02-24T01:48:58;819.72;;;772.13;;
17197;SDS011;8715;51.010;6.812;2023-02-24T01:51:25;818.50;;;772.60;;
17197;SDS011;8715;51.010;6.812;2023-02-24T01:53:52;855.53;;;805.53;;
17197;SDS011;8715;51.010;6.812;2023-02-24T01:56:18;825.90;;;778.25;;
17197;SDS011;8715;51.010;6.812;2023-02-24T01:58:44;824.77;;;778.03;;
17197;SDS011;8715;51.010;6.812;2023-02-24T02:01:09;820.30;;;774.13;;
17197;SDS011;8715;51.010;6.812;2023-02-24T02:03:38;819.20;;;773.03;;
17197;SDS011;8715;51.010;6.812;2023-02-24T02:06:09;810.33;;;766.08;;
17197;SDS011;8715;51.010;6.812;2023-02-24T02:08:35;812.25;;;767.78;;
17197;SDS011;8715;51.010;6.812;2023-02-24T02:11:03;804.55;;;760.35;;
17197;SDS011;8715;51.010;6.812;2023-02-24T02:13:30;821.30;;;775.97;;
17197;SDS011;8715;51.010;6.812;2023-02-24T02:18:46;803.00;;;758.63;;
17197;SDS011;8715;51.010;6.812;2023-02-24T02:26:49;809.63;;;765.97;;
17197;SDS011;8715;51.010;6.812;2023-02-24T02:31:55;812.63;;;767.88;;
17197;SDS011;8715;51.010;6.812;2023-02-24T02:34:48;813.22;;;768.00;;
17197;SDS011;8715;51.010;6.812;2023-02-24T02:40:10;809.35;;;766.30;;
17197;SDS011;8715;51.010;6.812;2023-02-24T02:42:53;803.85;;;761.42;;
17197;SDS011;8715;51.010;6.812;2023-02-24T02:50:26;805.63;;;764.30;;
17197;SDS011;8715;51.010;6.812;2023-02-24T02:52:59;797.75;;;755.15;;
17197;SDS011;8715;51.010;6.812;2023-02-24T02:55:29;797.20;;;755.35;;
17197;SDS011;8715;51.010;6.812;2023-02-24T02:57:58;801.40;;;759.10;;
17197;SDS011;8715;51.010;6.812;2023-02-24T03:00:25;794.10;;;753.00;;
17197;SDS011;8715;51.010;6.812;2023-02-24T03:02:57;797.85;;;756.38;;
17197;SDS011;8715;51.010;6.812;2023-02-24T03:05:29;800.22;;;758.55;;
17197;SDS011;8715;51.010;6.812;2023-02-24T03:07:56;792.47;;;750.50;;
17197;SDS011;8715;51.010;6.812;2023-02-24T03:10:24;805.20;;;763.83;;
17197;SDS011;8715;51.010;6.812;2023-02-24T03:12:52;802.08;;;759.72;;
17197;SDS011;8715;51.010;6.812;2023-02-24T03:15:18;796.28;;;754.13;;
17197;SDS011;8715;51.010;6.812;2023-02-24T03:17:45;796.90;;;755.42;;
17197;SDS011;8715;51.010;6.812;2023-02-24T03:20:14;801.53;;;760.10;;
17197;SDS011;8715;51.010;6.812;2023-02-24T03:22:42;819.03;;;775.75;;
17197;SDS011;8715;51.010;6.812;2023-02-24T03:25:08;798.90;;;756.30;;
17197;SDS011;8715;51.010;6.812;2023-02-24T03:27:48;800.42;;;757.63;;
17197;SDS011;8715;51.010;6.812;2023-02-24T03:32:49;799.70;;;758.22;;
17197;SDS011;8715;51.010;6.812;2023-02-24T03:35:23;795.90;;;753.53;;
17197;SDS011;8715;51.010;6.812;2023-02-24T03:40:14;783.33;;;743.92;;
17197;SDS011;8715;51.010;6.812;2023-02-24T03:42:44;797.25;;;756.25;;
17197;SDS011;8715;51.010;6.812;2023-02-24T03:45:10;791.92;;;751.75;;
17197;SDS011;8715;51.010;6.812;2023-02-24T03:47:35;783.92;;;744.25;;
17197;SDS011;8715;51.010;6.812;2023-02-24T03:50:00;792.80;;;752.33;;
17197;SDS011;8715;51.010;6.812;2023-02-24T03:57:41;790.50;;;749.80;;
17197;SDS011;8715;51.010;6.812;2023-02-24T04:00:22;789.15;;;749.80;;
17197;SDS011;8715;51.010;6.812;2023-02-24T04:03:05;787.92;;;748.72;;
17197;SDS011;8715;51.010;6.812;2023-02-24T04:05:33;799.50;;;758.67;;
17197;SDS011;8715;51.010;6.812;2023-02-24T04:08:00;793.13;;;752.80;;
17197;SDS011;8715;51.010;6.812;2023-02-24T04:15:46;798.58;;;757.35;;
17197;SDS011;8715;51.010;6.812;2023-02-24T04:18:14;793.83;;;753.70;;
17197;SDS011;8715;51.010;6.812;2023-02-24T04:20:41;791.92;;;751.83;;
17197;SDS011;8715;51.010;6.812;2023-02-24T04:23:12;787.22;;;746.67;;
17197;SDS011;8715;51.010;6.812;2023-02-24T04:25:39;790.20;;;750.42;;
17197;SDS011;8715;51.010;6.812;2023-02-24T04:28:06;783.80;;;744.60;;
17197;SDS011;8715;51.010;6.812;2023-02-24T04:30:33;793.58;;;753.90;;
17197;SDS011;8715;51.010;6.812;2023-02-24T04:32:59;789.47;;;750.17;;
17197;SDS011;8715;51.010;6.812;2023-02-24T04:35:24;790.60;;;749.17;;
17197;SDS011;8715;51.010;6.812;2023-02-24T04:37:50;790.03;;;750.13;;
17197;SDS011;8715;51.010;6.812;2023-02-24T04:40:16;786.70;;;747.27;;
17197;SDS011;8715;51.010;6.812;2023-02-24T04:42:42;782.33;;;742.90;;
17197;SDS011;8715;51.010;6.812;2023-02-24T04:47:40;786.55;;;747.42;;
17197;SDS011;8715;51.010;6.812;2023-02-24T04:50:10;796.70;;;756.30;;
17197;SDS011;8715;51.010;6.812;2023-02-24T04:52:35;796.95;;;756.08;;
17197;SDS011;8715;51.010;6.812;2023-02-24T04:55:00;792.72;;;751.95;;
17197;SDS011;8715;51.010;6.812;2023-02-24T04:57:34;789.15;;;749.22;;
17197;SDS011;8715;51.010;6.812;2023-02-24T05:00:01;794.50;;;754.33;;
17197;SDS011;8715;51.010;6.812;2023-02-24T05:02:35;792.60;;;752.70;;
17197;SDS011;8715;51.010;6.812;2023-02-24T05:05:02;783.95;;;744.45;;
17197;SDS011;8715;51.010;6.812;2023-02-24T05:07:31;789.97;;;750.28;;
17197;SDS011;8715;51.010;6.812;2023-02-24T05:09:57;793.60;;;753.17;;
17197;SDS011;8715;51.010;6.812;2023-02-24T05:12:22;784.33;;;745.37;;
17197;SDS011;8715;51.010;6.812;2023-02-24T05:14:47;786.70;;;746.63;;
17197;SDS011;8715;51.010;6.812;2023-02-24T05:17:13;787.42;;;746.78;;
17197;SDS011;8715;51.010;6.812;2023-02-24T05:19:40;791.90;;;750.75;;
17197;SDS011;8715;51.010;6.812;2023-02-24T05:22:23;786.90;;;745.95;;
17197;SDS011;8715;51.010;6.812;2023-02-24T05:24:49;787.77;;;748.37;;
17197;SDS011;8715;51.010;6.812;2023-02-24T05:27:14;777.27;;;739.23;;
17197;SDS011;8715;51.010;6.812;2023-02-24T05:29:41;785.00;;;745.47;;
17197;SDS011;8715;51.010;6.812;2023-02-24T05:32:06;792.33;;;751.73;;
17197;SDS011;8715;51.010;6.812;2023-02-24T05:34:32;793.28;;;753.05;;
17197;SDS011;8715;51.010;6.812;2023-02-24T05:36:58;781.10;;;742.38;;
17197;SDS011;8715;51.010;6.812;2023-02-24T05:39:23;785.95;;;746.60;;
17197;SDS011;8715;51.010;6.812;2023-02-24T05:41:50;796.10;;;755.20;;
17197;SDS011;8715;51.010;6.812;2023-02-24T05:44:19;800.10;;;758.10;;
17197;SDS011;8715;51.010;6.812;2023-02-24T05:46:47;802.85;;;760.60;;
17197;SDS011;8715;51.010;6.812;2023-02-24T05:49:18;806.22;;;763.15;;
17197;SDS011;8715;51.010;6.812;2023-02-24T05:51:52;802.13;;;760.85;;
17197;SDS011;8715;51.010;6.812;2023-02-24T05:54:21;791.08;;;751.28;;
17197;SDS011;8715;51.010;6.812;2023-02-24T05:56:46;792.95;;;752.78;;
17197;SDS011;8715;51.010;6.812;2023-02-24T05:59:12;791.87;;;750.53;;
17197;SDS011;8715;51.010;6.812;2023-02-24T06:01:42;795.72;;;755.25;;
17197;SDS011;8715;51.010;6.812;2023-02-24T06:04:10;801.33;;;759.63;;
17197;SDS011;8715;51.010;6.812;2023-02-24T06:06:45;795.60;;;753.42;;
17197;SDS011;8715;51.010;6.812;2023-02-24T06:09:11;789.80;;;748.42;;
17197;SDS011;8715;51.010;6.812;2023-02-24T06:11:37;793.95;;;754.00;;
17197;SDS011;8715;51.010;6.812;2023-02-24T06:14:04;801.00;;;759.25;;
17197;SDS011;8715;51.010;6.812;2023-02-24T06:16:32;794.47;;;753.45;;
17197;SDS011;8715;51.010;6.812;2023-02-24T06:18:58;793.95;;;752.92;;
17197;SDS011;8715;51.010;6.812;2023-02-24T06:21:23;794.60;;;753.53;;
17197;SDS011;8715;51.010;6.812;2023-02-24T06:23:50;796.55;;;756.05;;
17197;SDS011;8715;51.010;6.812;2023-02-24T06:26:15;795.28;;;754.83;;
17197;SDS011;8715;51.010;6.812;2023-02-24T06:28:46;799.58;;;757.63;;
17197;SDS011;8715;51.010;6.812;2023-02-24T06:31:12;785.35;;;745.63;;
17197;SDS011;8715;51.010;6.812;2023-02-24T06:33:38;808.67;;;766.40;;
17197;SDS011;8715;51.010;6.812;2023-02-24T06:36:04;818.92;;;776.45;;
17197;SDS011;8715;51.010;6.812;2023-02-24T06:38:29;797.03;;;755.33;;
17197;SDS011;8715;51.010;6.812;2023-02-24T06:40:58;794.78;;;753.95;;
17197;SDS011;8715;51.010;6.812;2023-02-24T06:43:24;793.67;;;753.10;;
17197;SDS011;8715;51.010;6.812;2023-02-24T06:45:49;793.92;;;753.75;;
17197;SDS011;8715;51.010;6.812;2023-02-24T06:48:15;794.13;;;753.70;;
17197;SDS011;8715;51.010;6.812;2023-02-24T06:50:40;786.77;;;745.97;;
17197;SDS011;8715;51.010;6.812;2023-02-24T06:53:05;799.50;;;757.67;;
17197;SDS011;8715;51.010;6.812;2023-02-24T06:55:40;781.63;;;742.40;;
17197;SDS011;8715;51.010;6.812;2023-02-24T06:58:05;819.30;;;775.77;;
17197;SDS011;8715;51.010;6.812;2023-02-24T07:00:32;810.53;;;767.72;;
17197;SDS011;8715;51.010;6.812;2023-02-24T07:03:04;813.92;;;770.42;;
17197;SDS011;8715;51.010;6.812;2023-02-24T07:05:39;800.25;;;758.53;;
17197;SDS011;8715;51.010;6.812;2023-02-24T07:08:04;805.50;;;763.40;;
17197;SDS011;8715;51.010;6.812;2023-02-24T07:10:32;800.40;;;759.20;;
17197;SDS011;8715;51.010;6.812;2023-02-24T07:12:57;807.67;;;764.57;;
17197;SDS011;8715;51.010;6.812;2023-02-24T07:15:23;807.05;;;764.35;;
17197;SDS011;8715;51.010;6.812;2023-02-24T07:17:48;801.42;;;759.05;;
17197;SDS011;8715;51.010;6.812;2023-02-24T07:20:14;807.83;;;765.05;;
17197;SDS011;8715;51.010;6.812;2023-02-24T07:22:49;826.03;;;781.20;;
17197;SDS011;8715;51.010;6.812;2023-02-24T07:25:14;806.73;;;763.73;;
17197;SDS011;8715;51.010;6.812;2023-02-24T07:27:56;810.40;;;767.65;;
17197;SDS011;8715;51.010;6.812;2023-02-24T07:30:23;801.45;;;758.92;;
17197;SDS011;8715;51.010;6.812;2023-02-24T07:32:49;801.60;;;759.78;;
17197;SDS011;8715;51.010;6.812;2023-02-24T07:35:19;812.33;;;769.35;;
17197;SDS011;8715;51.010;6.812;2023-02-24T07:37:45;807.83;;;765.78;;
17197;SDS011;8715;51.010;6.812;2023-02-24T07:40:12;802.35;;;760.70;;
17197;SDS011;8715;51.010;6.812;2023-02-24T07:42:41;806.03;;;763.70;;
17197;SDS011;8715;51.010;6.812;2023-02-24T07:45:06;800.73;;;758.33;;
17197;SDS011;8715;51.010;6.812;2023-02-24T07:47:31;815.22;;;771.28;;
17197;SDS011;8715;51.010;6.812;2023-02-24T07:49:57;807.05;;;764.00;;
17197;SDS011;8715;51.010;6.812;2023-02-24T07:52:24;815.05;;;771.83;;
17197;SDS011;8715;51.010;6.812;2023-02-24T07:54:49;805.33;;;762.93;;
17197;SDS011;8715;51.010;6.812;2023-02-24T07:57:14;820.37;;;776.30;;
17197;SDS011;8715;51.010;6.812;2023-02-24T07:59:42;819.05;;;775.80;;
17197;SDS011;8715;51.010;6.812;2023-02-24T08:02:11;814.55;;;770.78;;
17197;SDS011;8715;51.010;6.812;2023-02-24T08:04:37;811.75;;;766.88;;
17197;SDS011;8715;51.010;6.812;2023-02-24T08:07:05;843.88;;;797.88;;
17197;SDS011;8715;51.010;6.812;2023-02-24T08:09:38;813.50;;;770.00;;
17197;SDS011;8715;51.010;6.812;2023-02-24T08:12:19;811.38;;;767.50;;
17197;SDS011;8715;51.010;6.812;2023-02-24T08:17:14;808.78;;;766.10;;
17197;SDS011;8715;51.010;6.812;2023-02-24T08:19:43;805.85;;;763.03;;
17197;SDS011;8715;51.010;6.812;2023-02-24T08:22:10;818.58;;;773.75;;
17197;SDS011;8715;51.010;6.812;2023-02-24T08:24:45;812.17;;;768.85;;
17197;SDS011;8715;51.010;6.812;2023-02-24T08:27:14;815.83;;;771.85;;
17197;SDS011;8715;51.010;6.812;2023-02-24T08:29:39;816.13;;;772.42;;
17197;SDS011;8715;51.010;6.812;2023-02-24T08:32:22;818.67;;;773.90;;
17197;SDS011;8715;51.010;6.812;2023-02-24T08:34:48;813.58;;;768.97;;
17197;SDS011;8715;51.010;6.812;2023-02-24T08:37:14;822.58;;;777.35;;
17197;SDS011;8715;51.010;6.812;2023-02-24T08:39:39;824.95;;;779.33;;
17197;SDS011;8715;51.010;6.812;2023-02-24T08:42:05;821.65;;;776.20;;
17197;SDS011;8715;51.010;6.812;2023-02-24T08:44:31;817.55;;;772.63;;
17197;SDS011;8715;51.010;6.812;2023-02-24T08:46:59;818.83;;;774.20;;
17197;SDS011;8715;51.010;6.812;2023-02-24T08:49:25;817.97;;;773.65;;
17197;SDS011;8715;51.010;6.812;2023-02-24T08:51:52;821.95;;;777.35;;
17197;SDS011;8715;51.010;6.812;2023-02-24T08:54:19;816.20;;;771.47;;
17197;SDS011;8715;51.010;6.812;2023-02-24T08:56:52;817.72;;;773.08;;
17197;SDS011;8715;51.010;6.812;2023-02-24T08:59:20;815.30;;;771.42;;
17197;SDS011;8715;51.010;6.812;2023-02-24T09:02:06;816.67;;;772.20;;
17197;SDS011;8715;51.010;6.812;2023-02-24T09:04:57;812.05;;;768.90;;
17197;SDS011;8715;51.010;6.812;2023-02-24T09:07:24;812.35;;;768.97;;
17197;SDS011;8715;51.010;6.812;2023-02-24T09:09:49;823.70;;;778.80;;
17197;SDS011;8715;51.010;6.812;2023-02-24T09:12:20;823.03;;;777.75;;
17197;SDS011;8715;51.010;6.812;2023-02-24T09:14:56;822.97;;;777.53;;
17197;SDS011;8715;51.010;6.812;2023-02-24T09:17:23;825.45;;;780.63;;
17197;SDS011;8715;51.010;6.812;2023-02-24T09:20:08;816.60;;;772.55;;
17197;SDS011;8715;51.010;6.812;2023-02-24T09:23:01;818.80;;;774.38;;
17197;SDS011;8715;51.010;6.812;2023-02-24T09:25:39;818.13;;;773.92;;
17197;SDS011;8715;51.010;6.812;2023-02-24T09:28:08;832.97;;;787.03;;
17197;SDS011;8715;51.010;6.812;2023-02-24T09:30:36;819.22;;;774.20;;
17197;SDS011;8715;51.010;6.812;2023-02-24T09:35:30;824.45;;;779.67;;
17197;SDS011;8715;51.010;6.812;2023-02-24T09:37:56;827.72;;;781.58;;
17197;SDS011;8715;51.010;6.812;2023-02-24T09:40:24;821.95;;;777.20;;
17197;SDS011;8715;51.010;6.812;2023-02-24T09:43:03;822.97;;;777.72;;
17197;SDS011;8715;51.010;6.812;2023-02-24T09:45:35;817.53;;;772.75;;
17197;SDS011;8715;51.010;6.812;2023-02-24T09:48:01;819.38;;;774.50;;
17197;SDS011;8715;51.010;6.812;2023-02-24T09:50:34;823.90;;;778.28;;
17197;SDS011;8715;51.010;6.812;2023-02-24T09:53:35;819.60;;;774.33;;
17197;SDS011;8715;51.010;6.812;2023-02-24T09:56:06;817.83;;;772.88;;
17197;SDS011;8715;51.010;6.812;2023-02-24T10:03:45;822.67;;;777.60;;
17197;SDS011;8715;51.010;6.812;2023-02-24T10:06:20;826.30;;;780.65;;
17197;SDS011;8715;51.010;6.812;2023-02-24T10:08:47;826.40;;;781.00;;
17197;SDS011;8715;51.010;6.812;2023-02-24T10:11:14;823.67;;;778.40;;
17197;SDS011;8715;51.010;6.812;2023-02-24T10:13:58;833.00;;;785.88;;
17197;SDS011;8715;51.010;6.812;2023-02-24T10:16:24;840.35;;;792.90;;
17197;SDS011;8715;51.010;6.812;2023-02-24T10:19:09;836.13;;;788.15;;
17197;SDS011;8715;51.010;6.812;2023-02-24T10:21:42;833.85;;;787.22;;
17197;SDS011;8715;51.010;6.812;2023-02-24T10:26:57;829.80;;;782.80;;
17197;SDS011;8715;51.010;6.812;2023-02-24T10:31:59;834.72;;;787.10;;
17197;SDS011;8715;51.010;6.812;2023-02-24T10:34:31;837.35;;;790.42;;
17197;SDS011;8715;51.010;6.812;2023-02-24T10:37:17;828.25;;;781.70;;
17197;SDS011;8715;51.010;6.812;2023-02-24T10:39:44;828.60;;;781.90;;
17197;SDS011;8715;51.010;6.812;2023-02-24T10:42:20;822.55;;;776.60;;
17197;SDS011;8715;51.010;6.812;2023-02-24T10:44:48;825.00;;;779.03;;
17197;SDS011;8715;51.010;6.812;2023-02-24T10:47:18;829.47;;;783.22;;
17197;SDS011;8715;51.010;6.812;2023-02-24T10:52:21;825.78;;;779.70;;
17197;SDS011;8715;51.010;6.812;2023-02-24T10:57:59;830.53;;;784.60;;
17197;SDS011;8715;51.010;6.812;2023-02-24T11:00:36;826.45;;;780.17;;
17197;SDS011;8715;51.010;6.812;2023-02-24T11:03:20;825.40;;;779.53;;
17197;SDS011;8715;51.010;6.812;2023-02-24T11:06:04;827.45;;;781.42;;
17197;SDS011;8715;51.010;6.812;2023-02-24T11:08:57;830.78;;;784.33;;
17197;SDS011;8715;51.010;6.812;2023-02-24T11:11:41;831.10;;;784.55;;
17197;SDS011;8715;51.010;6.812;2023-02-24T11:14:30;854.85;;;807.05;;
17197;SDS011;8715;51.010;6.812;2023-02-24T11:17:17;824.95;;;779.35;;
17197;SDS011;8715;51.010;6.812;2023-02-24T11:20:04;830.42;;;784.08;;
17197;SDS011;8715;51.010;6.812;2023-02-24T11:22:36;824.13;;;778.70;;
17197;SDS011;8715;51.010;6.812;2023-02-24T11:25:03;829.53;;;783.35;;
17197;SDS011;8715;51.010;6.812;2023-02-24T11:27:29;821.95;;;776.10;;
17197;SDS011;8715;51.010;6.812;2023-02-24T11:32:42;829.38;;;784.10;;
17197;SDS011;8715;51.010;6.812;2023-02-24T11:35:24;825.00;;;779.60;;
17197;SDS011;8715;51.010;6.812;2023-02-24T11:40:36;815.05;;;771.33;;
17197;SDS011;8715;51.010;6.812;2023-02-24T11:43:04;821.67;;;775.95;;
17197;SDS011;8715;51.010;6.812;2023-02-24T11:45:38;815.67;;;771.22;;
17197;SDS011;8715;51.010;6.812;2023-02-24T11:48:05;825.90;;;780.83;;
17197;SDS011;8715;51.010;6.812;2023-02-24T11:53:13;816.08;;;772.00;;
17197;SDS011;8715;51.010;6.812;2023-02-24T11:55:45;825.10;;;779.60;;
17197;SDS011;8715;51.010;6.812;2023-02-24T12:00:38;824.67;;;779.35;;
17197;SDS011;8715;51.010;6.812;2023-02-24T12:03:07;816.45;;;771.78;;
17197;SDS011;8715;51.010;6.812;2023-02-24T12:05:39;824.00;;;779.58;;
17197;SDS011;8715;51.010;6.812;2023-02-24T12:10:35;811.00;;;767.50;;
17197;SDS011;8715;51.010;6.812;2023-02-24T12:13:11;814.55;;;770.13;;
17197;SDS011;8715;51.010;6.812;2023-02-24T12:18:11;817.30;;;773.25;;
17197;SDS011;8715;51.010;6.812;2023-02-24T12:20:39;818.42;;;774.47;;
17197;SDS011;8715;51.010;6.812;2023-02-24T12:23:51;821.25;;;775.40;;
17197;SDS011;8715;51.010;6.812;2023-02-24T12:25:59;814.85;;;770.90;;
17197;SDS011;8715;51.010;6.812;2023-02-24T12:38:22;815.33;;;771.53;;
17197;SDS011;8715;51.010;6.812;2023-02-24T12:40:55;842.03;;;795.50;;
17197;SDS011;8715;51.010;6.812;2023-02-24T12:45:56;819.05;;;773.83;;
17197;SDS011;8715;51.010;6.812;2023-02-24T12:50:51;814.10;;;770.30;;
17197;SDS011;8715;51.010;6.812;2023-02-24T12:58:33;806.33;;;764.20;;
17197;SDS011;8715;51.010;6.812;2023-02-24T13:03:38;804.63;;;762.80;;
17197;SDS011;8715;51.010;6.812;2023-02-24T13:06:19;807.40;;;763.95;;
17197;SDS011;8715;51.010;6.812;2023-02-24T13:13:41;815.33;;;771.35;;
17197;SDS011;8715;51.010;6.812;2023-02-24T13:16:10;815.78;;;772.33;;
17197;SDS011;8715;51.010;6.812;2023-02-24T13:18:36;816.30;;;772.55;;
17197;SDS011;8715;51.010;6.812;2023-02-24T13:23:29;804.17;;;761.92;;
17197;SDS011;8715;51.010;6.812;2023-02-24T13:25:56;807.08;;;763.67;;
17197;SDS011;8715;51.010;6.812;2023-02-24T13:28:23;815.55;;;772.08;;
17197;SDS011;8715;51.010;6.812;2023-02-24T13:30:56;811.58;;;768.63;;
17197;SDS011;8715;51.010;6.812;2023-02-24T13:33:31;805.80;;;762.92;;
17197;SDS011;8715;51.010;6.812;2023-02-24T13:41:07;802.63;;;759.85;;
17197;SDS011;8715;51.010;6.812;2023-02-24T13:43:32;830.08;;;785.17;;
17197;SDS011;8715;51.010;6.812;2023-02-24T13:45:59;806.70;;;764.30;;
17197;SDS011;8715;51.010;6.812;2023-02-24T13:58:42;811.55;;;768.65;;
17197;SDS011;8715;51.010;6.812;2023-02-24T14:01:11;820.00;;;775.50;;
17197;SDS011;8715;51.010;6.812;2023-02-24T14:03:42;808.55;;;766.35;;
17197;SDS011;8715;51.010;6.812;2023-02-24T14:06:16;809.80;;;766.72;;
17197;SDS011;8715;51.010;6.812;2023-02-24T14:08:44;817.10;;;773.17;;
17197;SDS011;8715;51.010;6.812;2023-02-24T14:11:12;811.65;;;768.50;;
17197;SDS011;8715;51.010;6.812;2023-02-24T14:13:39;810.70;;;767.25;;
17197;SDS011;8715;51.010;6.812;2023-02-24T14:16:07;812.70;;;769.55;;
17197;SDS011;8715;51.010;6.812;2023-02-24T14:18:33;814.72;;;771.35;;
17197;SDS011;8715;51.010;6.812;2023-02-24T14:21:00;818.35;;;774.72;;
17197;SDS011;8715;51.010;6.812;2023-02-24T14:23:32;814.17;;;771.00;;
17197;SDS011;8715;51.010;6.812;2023-02-24T14:26:01;817.05;;;772.97;;
17197;SDS011;8715;51.010;6.812;2023-02-24T14:28:29;812.97;;;769.97;;
17197;SDS011;8715;51.010;6.812;2023-02-24T14:30:56;808.53;;;765.88;;
17197;SDS011;8715;51.010;6.812;2023-02-24T14:33:35;810.45;;;767.80;;
17197;SDS011;8715;51.010;6.812;2023-02-24T14:36:05;816.72;;;773.40;;
17197;SDS011;8715;51.010;6.812;2023-02-24T14:40:56;815.80;;;772.43;;
17197;SDS011;8715;51.010;6.812;2023-02-24T14:43:22;808.47;;;765.40;;
17197;SDS011;8715;51.010;6.812;2023-02-24T14:45:48;814.03;;;771.05;;
17197;SDS011;8715;51.010;6.812;2023-02-24T14:48:22;812.53;;;769.42;;
17197;SDS011;8715;51.010;6.812;2023-02-24T14:50:47;816.03;;;772.10;;
17197;SDS011;8715;51.010;6.812;2023-02-24T14:53:13;806.10;;;763.45;;
17197;SDS011;8715;51.010;6.812;2023-02-24T14:55:40;819.40;;;775.65;;
17197;SDS011;8715;51.010;6.812;2023-02-24T14:58:20;815.78;;;772.13;;
17197;SDS011;8715;51.010;6.812;2023-02-24T15:03:16;813.47;;;770.92;;
17197;SDS011;8715;51.010;6.812;2023-02-24T15:05:44;817.30;;;774.35;;
17197;SDS011;8715;51.010;6.812;2023-02-24T15:08:16;807.30;;;764.50;;
17197;SDS011;8715;51.010;6.812;2023-02-24T15:10:44;809.60;;;766.55;;
17197;SDS011;8715;51.010;6.812;2023-02-24T15:13:24;807.20;;;764.28;;
17197;SDS011;8715;51.010;6.812;2023-02-24T15:15:51;805.15;;;762.50;;
17197;SDS011;8715;51.010;6.812;2023-02-24T15:18:20;801.03;;;760.27;;
17197;SDS011;8715;51.010;6.812;2023-02-24T15:20:48;810.47;;;767.67;;
17197;SDS011;8715;51.010;6.812;2023-02-24T15:23:30;809.15;;;766.70;;
17197;SDS011;8715;51.010;6.812;2023-02-24T15:25:56;802.88;;;760.63;;
17197;SDS011;8715;51.010;6.812;2023-02-24T15:28:31;809.87;;;766.50;;
17197;SDS011;8715;51.010;6.812;2023-02-24T15:33:41;808.40;;;766.03;;
17197;SDS011;8715;51.010;6.812;2023-02-24T15:36:08;796.55;;;756.00;;
17197;SDS011;8715;51.010;6.812;2023-02-24T15:38:37;804.42;;;762.70;;
17197;SDS011;8715;51.010;6.812;2023-02-24T15:41:04;806.72;;;764.42;;
17197;SDS011;8715;51.010;6.812;2023-02-24T15:48:41;806.28;;;763.95;;
17197;SDS011;8715;51.010;6.812;2023-02-24T15:51:16;807.58;;;765.70;;
17197;SDS011;8715;51.010;6.812;2023-02-24T15:53:43;806.38;;;764.17;;
17197;SDS011;8715;51.010;6.812;2023-02-24T15:56:09;802.13;;;760.47;;
17197;SDS011;8715;51.010;6.812;2023-02-24T15:58:34;823.90;;;778.43;;
17197;SDS011;8715;51.010;6.812;2023-02-24T16:01:01;815.53;;;771.22;;
17197;SDS011;8715;51.010;6.812;2023-02-24T16:03:27;817.30;;;773.30;;
17197;SDS011;8715;51.010;6.812;2023-02-24T16:05:52;811.30;;;767.50;;
17197;SDS011;8715;51.010;6.812;2023-02-24T16:08:18;813.80;;;770.53;;
17197;SDS011;8715;51.010;6.812;2023-02-24T16:10:43;819.80;;;775.72;;
17197;SDS011;8715;51.010;6.812;2023-02-24T16:13:14;817.60;;;773.83;;
17197;SDS011;8715;51.010;6.812;2023-02-24T16:15:40;807.00;;;764.05;;
17197;SDS011;8715;51.010;6.812;2023-02-24T16:18:11;832.90;;;787.22;;
17197;SDS011;8715;51.010;6.812;2023-02-24T16:20:42;815.58;;;772.00;;
17197;SDS011;8715;51.010;6.812;2023-02-24T16:23:08;812.30;;;769.35;;
17197;SDS011;8715;51.010;6.812;2023-02-24T16:25:37;834.40;;;789.15;;
17197;SDS011;8715;51.010;6.812;2023-02-24T16:30:29;802.70;;;760.53;;
17197;SDS011;8715;51.010;6.812;2023-02-24T16:32:55;828.08;;;783.85;;
17197;SDS011;8715;51.010;6.812;2023-02-24T16:35:20;808.40;;;765.10;;
17197;SDS011;8715;51.010;6.812;2023-02-24T16:37:46;832.90;;;787.87;;